Time;durP1;ratioP1;P1;durP2;ratioP2;P2;SDS_P1;SDS_P2;PMS_P1;PMS_P2;Temp;Humidity;BMP_temperature;BMP_pressure;BME280_temperature;BME280_humidity;BME280_pressure;Samples;Min_cycle;Max_cycle;Signal;HPM_P1;HPM_P2
2022/04/18 00:01:08;;;;;;;2.63;1.90;;;;;;;;;;5111897;28;20211;-31
2022/04/18 00:03:35;;;;;;;2.33;1.70;;;;;;;;;;5095178;28;20305;-31
2022/04/18 00:06:03;;;;;;;3.27;1.90;;;;;;;;;;5103523;28;20258;-38
2022/04/18 00:08:30;;;;;;;3.33;2.20;;;;;;;;;;5111764;28;20256;-32
2022/04/18 00:10:57;;;;;;;3.00;2.20;;;;;;;;;;5107986;28;20265;-33
2022/04/18 00:13:24;;;;;;;2.27;2.07;;;;;;;;;;5103298;28;20287;-31
2022/04/18 00:15:51;;;;;;;3.83;2.17;;;;;;;;;;5110907;28;20595;-30
2022/04/18 00:18:20;;;;;;;2.37;2.00;;;;;;;;;;5108385;28;20199;-32
2022/04/18 00:20:48;;;;;;;4.00;2.10;;;;;;;;;;5095219;28;20292;-35
2022/04/18 00:23:15;;;;;;;2.20;2.00;;;;;;;;;;5110711;28;20688;-31
2022/04/18 00:25:42;;;;;;;2.20;2.00;;;;;;;;;;5111025;28;20274;-34
2022/04/18 00:28:09;;;;;;;3.07;2.27;;;;;;;;;;5092793;28;20231;-32
2022/04/18 00:30:36;;;;;;;2.27;1.97;;;;;;;;;;5098183;28;20212;-31
2022/04/18 00:33:04;;;;;;;3.17;2.13;;;;;;;;;;5110815;28;20227;-32
2022/04/18 00:35:32;;;;;;;3.20;2.20;;;;;;;;;;5092813;28;20220;-30
2022/04/18 00:37:59;;;;;;;2.90;2.17;;;;;;;;;;5101708;28;20233;-27
2022/04/18 00:40:27;;;;;;;2.30;2.10;;;;;;;;;;5111382;28;20494;-35
2022/04/18 00:43:02;;;;;;;3.63;2.17;;;;;;;;;;5101230;28;20218;-33
2022/04/18 00:45:29;;;;;;;4.37;2.00;;;;;;;;;;5105251;28;20215;-38
2022/04/18 00:47:56;;;;;;;2.17;1.97;;;;;;;;;;5110777;28;20195;-31
2022/04/18 00:50:24;;;;;;;2.23;2.00;;;;;;;;;;5114532;28;20228;-33
2022/04/18 00:52:53;;;;;;;2.40;2.00;;;;;;;;;;5106189;28;20246;-33
2022/04/18 00:55:21;;;;;;;2.33;1.80;;;;;;;;;;5113840;28;20281;-30
2022/04/18 00:57:49;;;;;;;3.23;2.03;;;;;;;;;;5115513;28;20204;-31
2022/04/18 01:00:17;;;;;;;2.53;2.27;;;;;;;;;;5107027;27;20216;-33
2022/04/18 01:02:44;;;;;;;2.27;2.07;;;;;;;;;;5110932;28;20272;-34
2022/04/18 01:05:11;;;;;;;2.20;2.00;;;;;;;;;;5113777;28;20251;-36
2022/04/18 01:07:39;;;;;;;1.93;1.80;;;;;;;;;;5115271;28;20203;-33
2022/04/18 01:10:09;;;;;;;1.80;1.70;;;;;;;;;;5101201;28;20224;-31
2022/04/18 01:12:38;;;;;;;3.83;2.20;;;;;;;;;;5102065;28;20256;-34
2022/04/18 01:15:05;;;;;;;2.20;2.00;;;;;;;;;;5114310;28;20276;-33
2022/04/18 01:17:33;;;;;;;2.03;1.80;;;;;;;;;;5112319;28;20207;-31
2022/04/18 01:20:00;;;;;;;2.10;1.93;;;;;;;;;;5113527;28;20196;-35
2022/04/18 01:22:29;;;;;;;2.23;2.00;;;;;;;;;;5114106;28;20228;-33
2022/04/18 01:30:28;;;;;;;2.77;1.93;;;;;;;;;;5113828;28;20272;-32
2022/04/18 01:32:55;;;;;;;1.90;1.80;;;;;;;;;;5114279;28;20200;-31
2022/04/18 01:35:22;;;;;;;3.87;1.97;;;;;;;;;;5114114;28;20260;-31
2022/04/18 01:37:51;;;;;;;2.30;2.10;;;;;;;;;;5104127;28;20290;-35
2022/04/18 01:40:18;;;;;;;1.97;1.77;;;;;;;;;;5111348;28;20232;-33
2022/04/18 01:42:46;;;;;;;2.33;2.10;;;;;;;;;;5113801;28;20236;-31
2022/04/18 01:45:13;;;;;;;2.20;2.00;;;;;;;;;;5107159;28;20248;-35
2022/04/18 01:47:40;;;;;;;2.23;1.93;;;;;;;;;;5110156;28;20247;-31
2022/04/18 01:50:08;;;;;;;2.40;1.97;;;;;;;;;;5113541;28;20268;-29
2022/04/18 01:52:35;;;;;;;2.40;2.10;;;;;;;;;;5113750;28;20260;-35
2022/04/18 01:55:04;;;;;;;2.03;1.93;;;;;;;;;;5105325;28;20256;-34
2022/04/18 01:57:31;;;;;;;2.60;2.40;;;;;;;;;;5107546;28;20268;-37
2022/04/18 01:59:58;;;;;;;3.13;1.80;;;;;;;;;;5113379;28;20192;-29
2022/04/18 02:02:25;;;;;;;1.70;1.60;;;;;;;;;;5113854;28;20233;-35
2022/04/18 02:04:53;;;;;;;2.00;1.80;;;;;;;;;;5100599;28;20254;-33
2022/04/18 02:07:20;;;;;;;2.20;2.00;;;;;;;;;;5113204;28;20203;-33
2022/04/18 02:09:48;;;;;;;3.40;2.33;;;;;;;;;;5113443;28;20207;-34
2022/04/18 02:12:17;;;;;;;2.50;2.30;;;;;;;;;;5114151;28;20295;-32
2022/04/18 02:14:44;;;;;;;2.30;2.10;;;;;;;;;;5101030;28;20207;-35
2022/04/18 02:17:11;;;;;;;2.83;1.90;;;;;;;;;;5113628;28;20230;-34
2022/04/18 02:19:38;;;;;;;2.77;2.20;;;;;;;;;;5113727;28;20199;-34
2022/04/18 02:22:06;;;;;;;3.13;2.23;;;;;;;;;;5108598;28;20247;-35
2022/04/18 02:24:33;;;;;;;1.97;1.73;;;;;;;;;;5100937;28;20232;-34
2022/04/18 02:27:00;;;;;;;2.27;2.07;;;;;;;;;;5100849;28;20248;-33
2022/04/18 02:29:29;;;;;;;2.30;1.87;;;;;;;;;;5112696;28;20303;-35
2022/04/18 02:34:41;;;;;;;2.57;2.23;;;;;;;;;;5112859;28;20203;-35
2022/04/18 02:37:08;;;;;;;3.30;2.07;;;;;;;;;;5104647;28;20200;-32
2022/04/18 02:39:35;;;;;;;1.90;1.80;;;;;;;;;;5108334;28;20196;-31
2022/04/18 02:42:03;;;;;;;2.10;1.90;;;;;;;;;;5112984;28;20196;-32
2022/04/18 02:44:32;;;;;;;2.33;2.13;;;;;;;;;;5113340;28;20212;-33
2022/04/18 02:46:59;;;;;;;3.30;2.07;;;;;;;;;;5101622;28;20254;-33
2022/04/18 02:49:27;;;;;;;2.37;2.17;;;;;;;;;;5112951;28;20204;-33
2022/04/18 02:51:54;;;;;;;2.13;1.93;;;;;;;;;;5112928;28;20254;-33
2022/04/18 02:54:22;;;;;;;3.07;2.30;;;;;;;;;;5104055;28;20223;-35
2022/04/18 02:56:49;;;;;;;2.33;2.13;;;;;;;;;;5109612;28;20252;-40
2022/04/18 02:59:16;;;;;;;2.80;1.93;;;;;;;;;;5113063;28;20206;-33
2022/04/18 03:01:45;;;;;;;1.80;1.70;;;;;;;;;;5113249;28;20199;-38
2022/04/18 03:04:12;;;;;;;2.00;1.90;;;;;;;;;;5095872;28;20231;-34
2022/04/18 03:06:39;;;;;;;2.00;1.90;;;;;;;;;;5108987;28;20247;-35
2022/04/18 03:09:07;;;;;;;2.20;1.83;;;;;;;;;;5112835;27;20256;-29
2022/04/18 03:11:34;;;;;;;2.87;2.27;;;;;;;;;;5103250;28;20255;-29
2022/04/18 03:14:01;;;;;;;3.73;1.60;;;;;;;;;;5103262;28;20204;-30
2022/04/18 03:16:28;;;;;;;2.63;2.43;;;;;;;;;;5112740;28;20269;-36
2022/04/18 03:18:57;;;;;;;2.63;2.40;;;;;;;;;;5107746;28;20216;-38
2022/04/18 03:21:24;;;;;;;2.87;2.00;;;;;;;;;;5109360;28;20639;-32
2022/04/18 03:23:52;;;;;;;2.37;2.17;;;;;;;;;;5111534;28;20279;-34
2022/04/18 03:26:20;;;;;;;2.70;2.00;;;;;;;;;;5112529;28;20220;-35
2022/04/18 03:28:47;;;;;;;2.03;1.93;;;;;;;;;;5100523;28;20250;-32
2022/04/18 03:31:14;;;;;;;2.20;2.00;;;;;;;;;;5092123;28;20252;-29
2022/04/18 03:33:41;;;;;;;2.50;2.00;;;;;;;;;;5107674;28;20284;-33
2022/04/18 03:41:40;;;;;;;2.83;2.17;;;;;;;;;;5101100;28;20207;-33
2022/04/18 03:44:08;;;;;;;2.27;2.10;;;;;;;;;;5110750;28;20221;-32
2022/04/18 03:46:36;;;;;;;3.17;2.03;;;;;;;;;;5111854;28;20287;-29
2022/04/18 03:49:03;;;;;;;2.17;1.97;;;;;;;;;;5098676;28;20235;-36
2022/04/18 03:51:32;;;;;;;2.30;2.10;;;;;;;;;;5106387;28;20219;-33
2022/04/18 03:53:59;;;;;;;1.80;1.70;;;;;;;;;;5104806;28;20204;-38
2022/04/18 03:56:26;;;;;;;2.20;2.00;;;;;;;;;;5106682;28;20265;-34
2022/04/18 03:58:53;;;;;;;2.23;2.03;;;;;;;;;;5111610;28;20207;-35
2022/04/18 04:01:21;;;;;;;2.90;2.03;;;;;;;;;;5111969;28;20212;-27
2022/04/18 04:03:48;;;;;;;3.07;1.90;;;;;;;;;;5102376;28;20197;-34
2022/04/18 04:06:15;;;;;;;2.10;1.90;;;;;;;;;;5107441;28;20240;-33
2022/04/18 04:08:44;;;;;;;5.33;2.23;;;;;;;;;;5111679;28;20261;-31
2022/04/18 04:11:11;;;;;;;2.47;2.27;;;;;;;;;;5112024;28;20215;-31
2022/04/18 04:13:39;;;;;;;2.40;2.20;;;;;;;;;;5089721;28;20201;-32
2022/04/18 04:16:06;;;;;;;2.10;1.80;;;;;;;;;;5110350;28;20220;-30
2022/04/18 04:18:33;;;;;;;3.00;1.90;;;;;;;;;;5112180;28;20208;-34
2022/04/18 04:21:00;;;;;;;1.77;1.67;;;;;;;;;;5103018;28;20205;-29
2022/04/18 04:23:28;;;;;;;2.20;2.00;;;;;;;;;;5110863;28;20204;-30
2022/04/18 04:25:56;;;;;;;2.23;2.00;;;;;;;;;;5105286;28;20226;-33
2022/04/18 04:28:23;;;;;;;1.97;1.80;;;;;;;;;;5100215;28;20216;-31
2022/04/18 04:30:51;;;;;;;1.90;1.80;;;;;;;;;;5103706;28;20328;-38
2022/04/18 04:33:18;;;;;;;2.47;2.00;;;;;;;;;;5104114;28;20196;-32
2022/04/18 04:35:45;;;;;;;2.37;2.13;;;;;;;;;;5110971;28;20224;-30
2022/04/18 04:38:12;;;;;;;3.77;1.83;;;;;;;;;;5107460;28;20235;-32
2022/04/18 04:40:39;;;;;;;2.67;2.30;;;;;;;;;;5112119;28;20204;-30
2022/04/18 04:43:08;;;;;;;2.67;1.97;;;;;;;;;;5112695;28;20249;-30
2022/04/18 04:45:36;;;;;;;4.30;2.27;;;;;;;;;;5111521;28;20223;-37
2022/04/18 04:48:03;;;;;;;2.97;2.13;;;;;;;;;;5103650;28;20249;-30
2022/04/18 04:50:31;;;;;;;1.73;1.63;;;;;;;;;;5112872;28;20269;-36
2022/04/18 04:53:00;;;;;;;2.37;2.17;;;;;;;;;;5112631;28;20316;-35
2022/04/18 04:55:28;;;;;;;4.60;2.17;;;;;;;;;;5107555;28;20287;-29
2022/04/18 04:57:55;;;;;;;1.70;1.60;;;;;;;;;;5110045;28;20668;-32
2022/04/18 05:00:25;;;;;;;2.87;1.97;;;;;;;;;;5112883;28;20403;-29
2022/04/18 05:02:52;;;;;;;1.80;1.70;;;;;;;;;;5112943;28;20200;-33
2022/04/18 05:05:19;;;;;;;2.40;1.90;;;;;;;;;;5102333;28;20244;-36
2022/04/18 05:07:47;;;;;;;2.13;1.93;;;;;;;;;;5109321;28;20276;-30
2022/04/18 05:10:15;;;;;;;1.87;1.77;;;;;;;;;;5112826;28;20212;-34
2022/04/18 05:12:43;;;;;;;2.77;2.13;;;;;;;;;;5111736;28;20224;-30
2022/04/18 05:15:10;;;;;;;2.17;1.93;;;;;;;;;;5101447;28;20255;-36
2022/04/18 05:17:39;;;;;;;2.60;2.20;;;;;;;;;;5112701;28;20219;-30
2022/04/18 05:20:07;;;;;;;2.30;2.10;;;;;;;;;;5113048;28;20200;-28
2022/04/18 05:22:34;;;;;;;2.27;2.07;;;;;;;;;;5102185;28;20209;-35
2022/04/18 05:25:02;;;;;;;1.73;1.63;;;;;;;;;;5110987;28;20247;-30
2022/04/18 05:27:29;;;;;;;2.63;2.10;;;;;;;;;;5112679;28;20204;-40
2022/04/18 05:29:56;;;;;;;1.90;1.77;;;;;;;;;;5112874;28;20208;-32
2022/04/18 05:32:23;;;;;;;1.73;1.57;;;;;;;;;;5103949;28;20220;-34
2022/04/18 05:34:52;;;;;;;2.27;2.17;;;;;;;;;;5110606;28;20222;-33
2022/04/18 05:37:19;;;;;;;2.20;2.00;;;;;;;;;;5116161;28;20203;-34
2022/04/18 05:39:46;;;;;;;2.00;1.90;;;;;;;;;;5105490;27;20201;-37
2022/04/18 05:42:14;;;;;;;2.23;1.93;;;;;;;;;;5112661;28;20227;-33
2022/04/18 05:44:41;;;;;;;2.50;2.00;;;;;;;;;;5115519;28;20196;-32
2022/04/18 05:47:08;;;;;;;2.73;2.10;;;;;;;;;;5116143;28;20208;-38
2022/04/18 05:49:36;;;;;;;2.93;2.07;;;;;;;;;;5105672;28;20262;-35
2022/04/18 05:52:05;;;;;;;2.80;1.90;;;;;;;;;;5114177;28;20220;-34
2022/04/18 05:54:32;;;;;;;2.10;1.90;;;;;;;;;;5115616;28;20257;-35
2022/04/18 05:57:01;;;;;;;2.37;2.17;;;;;;;;;;5110982;28;20220;-34
2022/04/18 05:59:28;;;;;;;2.77;2.03;;;;;;;;;;5103664;28;20204;-35
2022/04/18 06:01:56;;;;;;;2.93;2.20;;;;;;;;;;5115876;27;20196;-32
2022/04/18 06:04:23;;;;;;;2.10;1.90;;;;;;;;;;5109645;28;20208;-42
2022/04/18 06:06:50;;;;;;;2.93;2.47;;;;;;;;;;5106463;28;20249;-36
2022/04/18 06:09:20;;;;;;;2.03;1.93;;;;;;;;;;5115186;28;20200;-31
2022/04/18 06:11:47;;;;;;;4.23;2.27;;;;;;;;;;5114143;28;20219;-29
2022/04/18 06:14:14;;;;;;;2.10;1.90;;;;;;;;;;5111203;28;20254;-34
2022/04/18 06:16:42;;;;;;;3.63;2.43;;;;;;;;;;5115816;28;20280;-37
2022/04/18 06:19:09;;;;;;;3.70;2.50;;;;;;;;;;5115588;28;20229;-35
2022/04/18 06:21:36;;;;;;;2.57;2.30;;;;;;;;;;5110846;28;20295;-37
2022/04/18 06:24:03;;;;;;;2.47;2.27;;;;;;;;;;5113164;28;20320;-29
2022/04/18 06:26:32;;;;;;;2.33;2.13;;;;;;;;;;5102987;27;20238;-35
2022/04/18 06:28:59;;;;;;;2.47;2.00;;;;;;;;;;5113823;28;20208;-33
2022/04/18 06:31:27;;;;;;;2.60;2.20;;;;;;;;;;5115513;28;20228;-32
2022/04/18 06:33:54;;;;;;;3.17;2.10;;;;;;;;;;5115209;28;20199;-33
2022/04/18 06:36:21;;;;;;;2.07;1.87;;;;;;;;;;5111185;27;20215;-33
2022/04/18 06:38:49;;;;;;;3.27;2.30;;;;;;;;;;5111924;28;20199;-33
2022/04/18 06:41:16;;;;;;;3.30;2.40;;;;;;;;;;5114809;27;20239;-31
2022/04/18 06:43:44;;;;;;;3.03;2.70;;;;;;;;;;5108482;28;20204;-32
2022/04/18 06:46:12;;;;;;;4.10;2.90;;;;;;;;;;5105399;28;20219;-37
2022/04/18 06:48:39;;;;;;;3.53;2.40;;;;;;;;;;5113549;28;20219;-33
2022/04/18 06:51:06;;;;;;;4.30;2.63;;;;;;;;;;5113654;28;20204;-29
2022/04/18 06:53:34;;;;;;;3.43;2.10;;;;;;;;;;5100661;28;20244;-34
2022/04/18 06:58:47;;;;;;;3.57;2.37;;;;;;;;;;5119612;27;20284;-41
2022/04/18 07:01:14;;;;;;;3.73;2.63;;;;;;;;;;5105724;27;20253;-35
2022/04/18 07:03:42;;;;;;;3.00;2.60;;;;;;;;;;5112924;27;20199;-36
2022/04/18 07:06:09;;;;;;;2.60;2.40;;;;;;;;;;5114500;28;20307;-32
2022/04/18 07:08:37;;;;;;;3.57;2.60;;;;;;;;;;5114087;28;20204;-33
2022/04/18 07:11:04;;;;;;;2.67;2.20;;;;;;;;;;5112318;27;20212;-29
2022/04/18 07:13:31;;;;;;;2.33;2.13;;;;;;;;;;5112994;28;20351;-35
2022/04/18 07:16:00;;;;;;;3.63;2.30;;;;;;;;;;5114244;28;20220;-34
2022/04/18 07:18:27;;;;;;;5.07;2.63;;;;;;;;;;5109883;28;20204;-34
2022/04/18 07:20:55;;;;;;;3.07;2.63;;;;;;;;;;5113094;28;20253;-32
2022/04/18 07:23:22;;;;;;;2.70;2.27;;;;;;;;;;5113465;28;20204;-37
2022/04/18 07:25:49;;;;;;;3.33;2.23;;;;;;;;;;5113394;28;20292;-34
2022/04/18 07:28:16;;;;;;;4.90;3.00;;;;;;;;;;5110397;27;20236;-30
2022/04/18 07:30:44;;;;;;;2.70;2.37;;;;;;;;;;5110598;28;20253;-35
2022/04/18 07:33:14;;;;;;;3.13;2.70;;;;;;;;;;5093376;28;20238;-31
2022/04/18 07:35:41;;;;;;;4.67;2.27;;;;;;;;;;5093914;28;20224;-33
2022/04/18 07:40:54;;;;;;;3.13;2.83;;;;;;;;;;5113545;28;20186;-35
2022/04/18 07:43:21;;;;;;;3.50;2.50;;;;;;;;;;5107358;28;20199;-37
2022/04/18 07:45:49;;;;;;;2.67;2.47;;;;;;;;;;5112512;28;20227;-29
2022/04/18 07:48:17;;;;;;;3.90;2.67;;;;;;;;;;5113346;27;20249;-37
2022/04/18 07:53:31;;;;;;;3.57;2.60;;;;;;;;;;5100357;28;20246;-33
2022/04/18 07:55:58;;;;;;;2.93;2.57;;;;;;;;;;5113279;28;20670;-33
2022/04/18 07:58:25;;;;;;;3.77;2.77;;;;;;;;;;5112739;28;20246;-35
2022/04/18 08:00:53;;;;;;;2.97;2.67;;;;;;;;;;5106843;28;20602;-30
2022/04/18 08:03:22;;;;;;;5.13;2.80;;;;;;;;;;5112221;28;20200;-30
2022/04/18 08:05:49;;;;;;;6.27;2.80;;;;;;;;;;5112658;28;20248;-33
2022/04/18 08:08:19;;;;;;;7.33;3.17;;;;;;;;;;5113757;27;20235;-31
2022/04/18 08:10:46;;;;;;;3.60;2.60;;;;;;;;;;5112092;27;20204;-32
2022/04/18 08:13:14;;;;;;;3.33;2.43;;;;;;;;;;5097530;28;20223;-33
2022/04/18 08:15:41;;;;;;;2.93;2.50;;;;;;;;;;5112827;28;20220;-33
2022/04/18 08:18:11;;;;;;;3.70;2.50;;;;;;;;;;5113515;28;20285;-35
2022/04/18 08:20:40;;;;;;;3.00;2.70;;;;;;;;;;5104559;28;20639;-36
2022/04/18 08:23:07;;;;;;;3.60;2.60;;;;;;;;;;5111379;28;20204;-31
2022/04/18 08:25:34;;;;;;;2.90;2.60;;;;;;;;;;5112680;28;20277;-34
2022/04/18 08:28:02;;;;;;;3.40;2.93;;;;;;;;;;5111103;28;20218;-28
2022/04/18 08:30:29;;;;;;;3.67;2.60;;;;;;;;;;5108291;28;20263;-37
2022/04/18 08:32:57;;;;;;;3.73;2.47;;;;;;;;;;5112217;28;20243;-32
2022/04/18 08:35:24;;;;;;;3.70;2.87;;;;;;;;;;5091516;28;20227;-31
2022/04/18 08:37:53;;;;;;;3.00;2.30;;;;;;;;;;5092011;28;20199;-30
2022/04/18 08:40:21;;;;;;;2.90;2.30;;;;;;;;;;5106383;28;20283;-36
2022/04/18 08:42:48;;;;;;;3.33;2.33;;;;;;;;;;5112471;28;20223;-31
2022/04/18 08:45:16;;;;;;;4.10;2.63;;;;;;;;;;5104569;28;20269;-30
2022/04/18 08:53:17;;;;;;;2.60;2.33;;;;;;;;;;5110443;28;20600;-32
2022/04/18 08:55:44;;;;;;;3.00;2.37;;;;;;;;;;5104616;28;20215;-32
2022/04/18 08:58:14;;;;;;;3.10;2.50;;;;;;;;;;5104248;28;20225;-36
2022/04/18 09:00:42;;;;;;;2.83;2.63;;;;;;;;;;5113330;28;20207;-30
2022/04/18 09:03:09;;;;;;;3.67;2.57;;;;;;;;;;5100786;28;20204;-35
2022/04/18 09:05:37;;;;;;;2.30;2.10;;;;;;;;;;5107834;28;20300;-35
2022/04/18 09:08:06;;;;;;;3.83;2.70;;;;;;;;;;5113029;28;20645;-33
2022/04/18 09:10:35;;;;;;;2.97;2.73;;;;;;;;;;5115750;28;20203;-28
2022/04/18 09:13:05;;;;;;;2.57;2.33;;;;;;;;;;5111469;27;20220;-33
2022/04/18 09:15:38;;;;;;;2.70;2.37;;;;;;;;;;5112849;27;20238;-35
2022/04/18 09:18:12;;;;;;;3.37;2.57;;;;;;;;;;5123667;27;20212;-29
2022/04/18 09:20:43;;;;;;;3.07;2.43;;;;;;;;;;5104043;27;20199;-30
2022/04/18 09:23:20;;;;;;;2.80;2.33;;;;;;;;;;5116127;28;20196;-33
2022/04/18 09:25:52;;;;;;;3.33;2.50;;;;;;;;;;5128515;27;20217;-37
2022/04/18 09:28:23;;;;;;;2.63;2.20;;;;;;;;;;5098398;28;20216;-29
2022/04/18 09:30:57;;;;;;;4.13;2.60;;;;;;;;;;5105656;28;20201;-37
2022/04/18 09:33:24;;;;;;;3.63;2.20;;;;;;;;;;5115971;28;20239;-35
2022/04/18 09:35:52;;;;;;;3.20;2.33;;;;;;;;;;5117099;27;20220;-31
2022/04/18 09:38:21;;;;;;;2.77;2.57;;;;;;;;;;5113164;27;20227;-33
2022/04/18 09:40:52;;;;;;;4.20;2.43;;;;;;;;;;5115422;28;20245;-26
2022/04/18 09:43:19;;;;;;;3.70;2.87;;;;;;;;;;5116048;28;20218;-30
2022/04/18 09:45:47;;;;;;;3.13;2.83;;;;;;;;;;5132241;27;20699;-32
2022/04/18 09:48:17;;;;;;;3.30;2.40;;;;;;;;;;5105769;28;20235;-32
2022/04/18 09:51:00;;;;;;;4.20;2.50;;;;;;;;;;5115194;27;20204;-33
2022/04/18 09:53:27;;;;;;;2.80;2.53;;;;;;;;;;5122405;27;20215;-34
2022/04/18 09:55:56;;;;;;;3.00;2.43;;;;;;;;;;5108442;27;20225;-32
2022/04/18 09:58:24;;;;;;;3.00;2.70;;;;;;;;;;5115441;28;20199;-31
2022/04/18 10:00:52;;;;;;;4.97;2.80;;;;;;;;;;5115789;28;20256;-29
2022/04/18 10:03:19;;;;;;;4.13;2.67;;;;;;;;;;5113542;28;20207;-31
2022/04/18 10:05:48;;;;;;;2.83;2.27;;;;;;;;;;5105326;27;20301;-35
2022/04/18 10:08:16;;;;;;;3.40;2.30;;;;;;;;;;5114831;28;20196;-29
2022/04/18 10:10:43;;;;;;;2.63;2.07;;;;;;;;;;5110429;28;20212;-36
2022/04/18 10:13:12;;;;;;;2.43;2.23;;;;;;;;;;5105186;28;20224;-34
2022/04/18 10:15:40;;;;;;;2.40;2.17;;;;;;;;;;5111152;28;20212;-29
2022/04/18 10:18:08;;;;;;;3.37;2.80;;;;;;;;;;5102375;27;20373;-33
2022/04/18 10:20:47;;;;;;;2.73;2.50;;;;;;;;;;5102210;28;20598;-32
2022/04/18 10:23:24;;;;;;;5.83;2.80;;;;;;;;;;5106762;28;20227;-30
2022/04/18 10:26:17;;;;;;;3.77;2.67;;;;;;;;;;5109039;28;20215;-32
2022/04/18 10:28:47;;;;;;;2.47;2.27;;;;;;;;;;5114437;28;20235;-35
2022/04/18 10:31:17;;;;;;;2.87;2.17;;;;;;;;;;5115430;28;20253;-33
2022/04/18 10:33:45;;;;;;;3.73;2.30;;;;;;;;;;5094470;28;20765;-34
2022/04/18 10:36:12;;;;;;;3.50;2.30;;;;;;;;;;5103712;27;20282;-31
2022/04/18 10:38:41;;;;;;;4.70;2.13;;;;;;;;;;5109499;27;20250;-33
2022/04/18 10:41:32;;;;;;;2.83;2.43;;;;;;;;;;5115024;28;20200;-37
2022/04/18 10:44:07;;;;;;;5.70;2.60;;;;;;;;;;5114359;28;20184;-33
2022/04/18 10:46:36;;;;;;;2.30;2.10;;;;;;;;;;5100564;27;20217;-35
2022/04/18 10:49:04;;;;;;;4.33;3.00;;;;;;;;;;5121297;27;20257;-35
2022/04/18 10:51:34;;;;;;;3.40;2.40;;;;;;;;;;5112663;28;20299;-31
2022/04/18 10:54:10;;;;;;;3.43;2.47;;;;;;;;;;5114113;28;20238;-30
2022/04/18 10:56:57;;;;;;;3.17;2.20;;;;;;;;;;5107699;28;20227;-34
2022/04/18 10:59:26;;;;;;;2.97;2.17;;;;;;;;;;5105233;28;20211;-31
2022/04/18 11:01:55;;;;;;;6.67;2.47;;;;;;;;;;5102852;27;20204;-33
2022/04/18 11:04:26;;;;;;;5.10;2.90;;;;;;;;;;5113989;28;20249;-32
2022/04/18 11:07:03;;;;;;;2.60;2.00;;;;;;;;;;5105366;28;20277;-31
2022/04/18 11:09:32;;;;;;;3.13;2.40;;;;;;;;;;5110544;28;20227;-36
2022/04/18 11:12:06;;;;;;;4.17;2.40;;;;;;;;;;5114464;28;20202;-34
2022/04/18 11:14:47;;;;;;;3.33;2.57;;;;;;;;;;5109711;27;20270;-38
2022/04/18 11:17:15;;;;;;;3.33;2.70;;;;;;;;;;5108240;27;20233;-35
2022/04/18 11:19:43;;;;;;;3.60;2.30;;;;;;;;;;5110830;28;20422;-31
2022/04/18 11:22:16;;;;;;;3.10;2.40;;;;;;;;;;5114917;28;20204;-35
2022/04/18 11:24:45;;;;;;;3.10;2.80;;;;;;;;;;5108041;28;20186;-32
2022/04/18 11:27:13;;;;;;;5.67;3.53;;;;;;;;;;5109192;28;20302;-36
2022/04/18 11:29:41;;;;;;;2.23;2.03;;;;;;;;;;5114717;28;20249;-37
2022/04/18 11:32:10;;;;;;;2.50;2.13;;;;;;;;;;5114489;28;20201;-30
2022/04/18 11:34:38;;;;;;;3.37;2.50;;;;;;;;;;5106167;28;20224;-29
2022/04/18 11:37:10;;;;;;;7.37;2.63;;;;;;;;;;5112225;28;20220;-31
2022/04/18 11:39:49;;;;;;;3.00;2.70;;;;;;;;;;5114671;28;20230;-35
2022/04/18 11:42:17;;;;;;;3.03;2.20;;;;;;;;;;5107715;28;20200;-34
2022/04/18 11:44:45;;;;;;;3.27;2.20;;;;;;;;;;5102881;28;20219;-30
2022/04/18 11:47:15;;;;;;;3.20;2.83;;;;;;;;;;5108922;28;20204;-32
2022/04/18 11:49:44;;;;;;;3.40;2.30;;;;;;;;;;5120143;27;20223;-35
2022/04/18 11:52:18;;;;;;;2.43;2.07;;;;;;;;;;5108051;28;20262;-35
2022/04/18 11:55:02;;;;;;;2.40;2.20;;;;;;;;;;5108751;28;20249;-38
2022/04/18 11:57:30;;;;;;;3.13;2.40;;;;;;;;;;5113985;28;20342;-36
2022/04/18 11:59:58;;;;;;;2.47;2.03;;;;;;;;;;5113881;28;20208;-35
2022/04/18 12:07:59;;;;;;;2.83;2.37;;;;;;;;;;5112690;28;20195;-35
2022/04/18 12:10:28;;;;;;;1.90;1.67;;;;;;;;;;5112965;28;20202;-35
2022/04/18 12:12:56;;;;;;;2.70;2.20;;;;;;;;;;5092734;28;20202;-30
2022/04/18 12:15:23;;;;;;;4.63;2.13;;;;;;;;;;5112039;28;20219;-28
2022/04/18 12:17:53;;;;;;;2.53;1.90;;;;;;;;;;5114552;27;20192;-32
2022/04/18 12:20:23;;;;;;;3.13;2.10;;;;;;;;;;5113509;28;20203;-35
2022/04/18 12:22:52;;;;;;;2.73;2.33;;;;;;;;;;5103122;28;20249;-33
2022/04/18 12:25:20;;;;;;;2.70;2.10;;;;;;;;;;5112769;28;20238;-33
2022/04/18 12:27:48;;;;;;;1.77;1.67;;;;;;;;;;5113440;28;20235;-35
2022/04/18 12:30:15;;;;;;;2.30;2.10;;;;;;;;;;5109254;28;20306;-33
2022/04/18 12:32:47;;;;;;;4.17;2.00;;;;;;;;;;5104658;28;20201;-31
2022/04/18 12:35:16;;;;;;;3.00;1.90;;;;;;;;;;5108055;28;20223;-29
2022/04/18 12:37:47;;;;;;;2.60;2.17;;;;;;;;;;5113542;28;20192;-35
2022/04/18 12:40:15;;;;;;;2.13;1.87;;;;;;;;;;5109231;28;20335;-28
2022/04/18 12:42:49;;;;;;;2.60;2.03;;;;;;;;;;5112405;28;20196;-31
2022/04/18 12:45:17;;;;;;;2.67;2.00;;;;;;;;;;5095202;28;20224;-36
2022/04/18 12:47:44;;;;;;;4.03;2.17;;;;;;;;;;5107357;27;20199;-35
2022/04/18 12:50:13;;;;;;;2.53;2.10;;;;;;;;;;5100164;28;20205;-32
2022/04/18 12:52:49;;;;;;;2.23;1.97;;;;;;;;;;5111498;28;20237;-33
2022/04/18 12:55:16;;;;;;;2.33;2.13;;;;;;;;;;5115611;28;20638;-33
2022/04/18 12:57:48;;;;;;;2.80;1.90;;;;;;;;;;5107346;27;20208;-39
2022/04/18 13:00:16;;;;;;;3.23;2.27;;;;;;;;;;5101107;28;20199;-33
2022/04/18 13:02:57;;;;;;;2.43;1.87;;;;;;;;;;5118302;27;20188;-36
2022/04/18 13:05:25;;;;;;;3.70;1.87;;;;;;;;;;5116441;28;20219;-33
2022/04/18 13:07:57;;;;;;;2.47;2.20;;;;;;;;;;5109252;28;20550;-34
2022/04/18 13:10:28;;;;;;;1.80;1.70;;;;;;;;;;5116734;27;20196;-31
2022/04/18 13:13:02;;;;;;;2.60;2.23;;;;;;;;;;5125558;27;20541;-35
2022/04/18 13:15:29;;;;;;;2.17;1.83;;;;;;;;;;5103384;27;20253;-33
2022/04/18 13:17:57;;;;;;;2.47;1.90;;;;;;;;;;5113596;27;20272;-31
2022/04/18 13:20:25;;;;;;;2.30;1.80;;;;;;;;;;5116484;28;20250;-31
2022/04/18 13:22:53;;;;;;;2.50;2.30;;;;;;;;;;5108819;28;20204;-35
2022/04/18 13:25:21;;;;;;;2.93;2.00;;;;;;;;;;5110028;28;20305;-42
2022/04/18 13:27:48;;;;;;;3.40;1.97;;;;;;;;;;5117296;28;20260;-36
2022/04/18 13:30:15;;;;;;;1.80;1.70;;;;;;;;;;5117533;28;20249;-39
2022/04/18 13:32:43;;;;;;;3.40;1.90;;;;;;;;;;5115222;28;20253;-31
2022/04/18 13:35:10;;;;;;;2.20;1.90;;;;;;;;;;5115836;28;20235;-33
2022/04/18 13:37:38;;;;;;;2.53;2.30;;;;;;;;;;5129851;27;20213;-33
2022/04/18 13:40:07;;;;;;;1.90;1.73;;;;;;;;;;5128239;27;20208;-38
2022/04/18 13:42:35;;;;;;;3.67;1.93;;;;;;;;;;5113051;28;20272;-35
2022/04/18 13:45:02;;;;;;;4.20;2.13;;;;;;;;;;5114995;28;20247;-33
2022/04/18 13:47:29;;;;;;;2.37;1.83;;;;;;;;;;5115577;27;20283;-37
2022/04/18 13:49:58;;;;;;;2.13;1.70;;;;;;;;;;5110453;28;20199;-35
2022/04/18 13:52:25;;;;;;;1.90;1.80;;;;;;;;;;5112442;28;20212;-32
2022/04/18 13:54:52;;;;;;;2.80;2.07;;;;;;;;;;5113916;28;20216;-32
2022/04/18 13:57:21;;;;;;;2.00;1.90;;;;;;;;;;5114371;28;20210;-31
2022/04/18 13:59:49;;;;;;;2.33;2.07;;;;;;;;;;5109746;27;20204;-35
2022/04/18 14:02:18;;;;;;;2.00;1.80;;;;;;;;;;5108109;28;20204;-36
2022/04/18 14:04:46;;;;;;;2.00;1.83;;;;;;;;;;5115176;28;20264;-37
2022/04/18 14:07:13;;;;;;;2.77;2.13;;;;;;;;;;5121322;27;20208;-31
2022/04/18 14:09:44;;;;;;;1.73;1.63;;;;;;;;;;5113064;28;20295;-37
2022/04/18 14:12:11;;;;;;;2.37;1.97;;;;;;;;;;5115089;28;20204;-33
2022/04/18 14:20:23;;;;;;;2.43;1.73;;;;;;;;;;5112584;28;20202;-35
2022/04/18 14:22:51;;;;;;;3.10;1.93;;;;;;;;;;5114363;28;20210;-32
2022/04/18 14:25:19;;;;;;;1.87;1.67;;;;;;;;;;5124801;27;20327;-35
2022/04/18 14:27:46;;;;;;;2.10;1.90;;;;;;;;;;5116125;27;20212;-30
2022/04/18 14:30:15;;;;;;;2.23;2.03;;;;;;;;;;5110576;28;20295;-32
2022/04/18 14:32:43;;;;;;;1.73;1.50;;;;;;;;;;5128766;27;20204;-31
2022/04/18 14:35:11;;;;;;;3.53;1.73;;;;;;;;;;5109345;27;20431;-36
2022/04/18 14:37:39;;;;;;;2.03;1.83;;;;;;;;;;5103000;28;20647;-32
2022/04/18 14:40:07;;;;;;;2.13;2.00;;;;;;;;;;5112377;28;20200;-30
2022/04/18 14:42:35;;;;;;;3.73;1.60;;;;;;;;;;5114297;28;20238;-35
2022/04/18 14:45:02;;;;;;;3.70;2.00;;;;;;;;;;5107780;28;20221;-32
2022/04/18 14:47:31;;;;;;;3.60;1.67;;;;;;;;;;5106896;27;20236;-37
2022/04/18 14:50:00;;;;;;;2.17;1.90;;;;;;;;;;5114355;28;20195;-33
2022/04/18 14:52:27;;;;;;;2.47;1.63;;;;;;;;;;5111242;27;20222;-31
2022/04/18 14:54:54;;;;;;;1.40;1.30;;;;;;;;;;5107468;28;20219;-34
2022/04/18 14:57:22;;;;;;;2.57;1.63;;;;;;;;;;5114072;28;20200;-29
2022/04/18 14:59:50;;;;;;;3.60;1.60;;;;;;;;;;5115044;28;20254;-35
2022/04/18 15:02:18;;;;;;;2.87;1.90;;;;;;;;;;5119550;27;20201;-33
2022/04/18 15:04:47;;;;;;;1.60;1.50;;;;;;;;;;5098725;28;20723;-36
2022/04/18 15:07:15;;;;;;;1.27;1.17;;;;;;;;;;5106045;28;20596;-35
2022/04/18 15:09:42;;;;;;;1.60;1.50;;;;;;;;;;5114419;28;20215;-33
2022/04/18 15:12:10;;;;;;;1.63;1.53;;;;;;;;;;5107541;28;20208;-36
2022/04/18 15:14:38;;;;;;;4.20;1.80;;;;;;;;;;5108733;28;20228;-36
2022/04/18 15:17:05;;;;;;;2.10;1.70;;;;;;;;;;5114161;28;20256;-33
2022/04/18 15:19:33;;;;;;;1.57;1.47;;;;;;;;;;5114651;28;20261;-39
2022/04/18 15:22:02;;;;;;;1.50;1.40;;;;;;;;;;5109352;28;20207;-35
2022/04/18 15:24:29;;;;;;;1.40;1.30;;;;;;;;;;5102371;28;20204;-33
2022/04/18 15:26:56;;;;;;;1.50;1.40;;;;;;;;;;5120101;27;20258;-33
2022/04/18 15:29:24;;;;;;;1.73;1.63;;;;;;;;;;5114097;28;20230;-36